sensor_id;sensor_type;location;lat;lon;timestamp;P1;durP1;ratioP1;P2;durP2;ratioP2
53497;SDS011;39382;47.168;16.008;2024-03-17T00:00:43;2.17;;;1.60;;
53497;SDS011;39382;47.168;16.008;2024-03-17T00:03:08;1.85;;;1.02;;
53497;SDS011;39382;47.168;16.008;2024-03-17T00:05:37;5.47;;;1.50;;
53497;SDS011;39382;47.168;16.008;2024-03-17T00:08:03;2.00;;;1.65;;
53497;SDS011;39382;47.168;16.008;2024-03-17T00:10:33;2.03;;;1.75;;
53497;SDS011;39382;47.168;16.008;2024-03-17T00:12:59;3.00;;;1.77;;
53497;SDS011;39382;47.168;16.008;2024-03-17T00:15:29;2.10;;;1.63;;
53497;SDS011;39382;47.168;16.008;2024-03-17T00:17:55;4.35;;;1.58;;
53497;SDS011;39382;47.168;16.008;2024-03-17T00:20:20;4.25;;;1.73;;
53497;SDS011;39382;47.168;16.008;2024-03-17T00:22:47;3.78;;;1.60;;
53497;SDS011;39382;47.168;16.008;2024-03-17T00:25:13;2.17;;;1.95;;
53497;SDS011;39382;47.168;16.008;2024-03-17T00:27:39;3.47;;;2.03;;
53497;SDS011;39382;47.168;16.008;2024-03-17T00:30:08;4.60;;;2.17;;
53497;SDS011;39382;47.168;16.008;2024-03-17T00:32:37;3.63;;;2.00;;
53497;SDS011;39382;47.168;16.008;2024-03-17T00:35:09;2.33;;;1.52;;
53497;SDS011;39382;47.168;16.008;2024-03-17T00:37:38;4.93;;;2.10;;
53497;SDS011;39382;47.168;16.008;2024-03-17T00:40:04;2.63;;;1.60;;
53497;SDS011;39382;47.168;16.008;2024-03-17T00:42:31;3.38;;;2.00;;
53497;SDS011;39382;47.168;16.008;2024-03-17T00:44:57;1.80;;;1.60;;
53497;SDS011;39382;47.168;16.008;2024-03-17T00:47:25;4.40;;;1.85;;
53497;SDS011;39382;47.168;16.008;2024-03-17T00:49:50;2.15;;;1.63;;
53497;SDS011;39382;47.168;16.008;2024-03-17T00:52:16;6.15;;;2.08;;
53497;SDS011;39382;47.168;16.008;2024-03-17T00:54:42;2.60;;;1.75;;
53497;SDS011;39382;47.168;16.008;2024-03-17T00:57:08;3.75;;;1.40;;
53497;SDS011;39382;47.168;16.008;2024-03-17T00:59:34;2.45;;;1.30;;
53497;SDS011;39382;47.168;16.008;2024-03-17T01:01:59;2.58;;;1.45;;
53497;SDS011;39382;47.168;16.008;2024-03-17T01:04:25;2.15;;;1.25;;
53497;SDS011;39382;47.168;16.008;2024-03-17T01:06:51;3.40;;;1.75;;
53497;SDS011;39382;47.168;16.008;2024-03-17T01:09:16;1.92;;;1.30;;
53497;SDS011;39382;47.168;16.008;2024-03-17T01:11:42;2.33;;;1.60;;
53497;SDS011;39382;47.168;16.008;2024-03-17T01:14:08;1.80;;;1.30;;
53497;SDS011;39382;47.168;16.008;2024-03-17T01:16:34;1.92;;;1.70;;
53497;SDS011;39382;47.168;16.008;2024-03-17T01:18:59;1.85;;;1.30;;
53497;SDS011;39382;47.168;16.008;2024-03-17T01:21:25;1.63;;;1.25;;
53497;SDS011;39382;47.168;16.008;2024-03-17T01:23:51;2.45;;;1.02;;
53497;SDS011;39382;47.168;16.008;2024-03-17T01:26:18;1.35;;;1.17;;
53497;SDS011;39382;47.168;16.008;2024-03-17T01:28:43;1.88;;;1.15;;
53497;SDS011;39382;47.168;16.008;2024-03-17T01:31:09;1.08;;;0.90;;
53497;SDS011;39382;47.168;16.008;2024-03-17T01:33:35;1.48;;;1.05;;
53497;SDS011;39382;47.168;16.008;2024-03-17T01:36:00;2.35;;;1.40;;
53497;SDS011;39382;47.168;16.008;2024-03-17T01:38:26;1.15;;;1.05;;
53497;SDS011;39382;47.168;16.008;2024-03-17T01:40:51;1.80;;;0.82;;
53497;SDS011;39382;47.168;16.008;2024-03-17T01:43:17;1.33;;;1.23;;
53497;SDS011;39382;47.168;16.008;2024-03-17T01:45:43;2.13;;;1.27;;
53497;SDS011;39382;47.168;16.008;2024-03-17T01:48:11;3.58;;;1.55;;
53497;SDS011;39382;47.168;16.008;2024-03-17T01:50:40;1.08;;;0.98;;
53497;SDS011;39382;47.168;16.008;2024-03-17T01:53:06;4.15;;;1.35;;
53497;SDS011;39382;47.168;16.008;2024-03-17T01:55:38;2.15;;;1.48;;
53497;SDS011;39382;47.168;16.008;2024-03-17T01:58:05;2.13;;;1.08;;
53497;SDS011;39382;47.168;16.008;2024-03-17T02:00:33;4.45;;;1.13;;
53497;SDS011;39382;47.168;16.008;2024-03-17T02:03:01;1.85;;;1.00;;
53497;SDS011;39382;47.168;16.008;2024-03-17T02:05:33;1.20;;;1.00;;
53497;SDS011;39382;47.168;16.008;2024-03-17T02:08:00;0.88;;;0.80;;
53497;SDS011;39382;47.168;16.008;2024-03-17T02:10:26;0.80;;;0.80;;
53497;SDS011;39382;47.168;16.008;2024-03-17T02:12:52;1.85;;;1.42;;
53497;SDS011;39382;47.168;16.008;2024-03-17T02:15:18;2.63;;;1.60;;
53497;SDS011;39382;47.168;16.008;2024-03-17T02:17:44;1.13;;;1.05;;
53497;SDS011;39382;47.168;16.008;2024-03-17T02:20:10;1.10;;;0.85;;
53497;SDS011;39382;47.168;16.008;2024-03-17T02:22:36;0.80;;;0.80;;
53497;SDS011;39382;47.168;16.008;2024-03-17T02:25:02;0.98;;;0.90;;
53497;SDS011;39382;47.168;16.008;2024-03-17T02:27:29;1.45;;;0.80;;
53497;SDS011;39382;47.168;16.008;2024-03-17T02:29:55;0.90;;;0.90;;
53497;SDS011;39382;47.168;16.008;2024-03-17T02:32:20;1.25;;;0.63;;
53497;SDS011;39382;47.168;16.008;2024-03-17T02:34:47;1.13;;;0.85;;
53497;SDS011;39382;47.168;16.008;2024-03-17T02:37:13;0.70;;;0.70;;
53497;SDS011;39382;47.168;16.008;2024-03-17T02:39:39;1.65;;;1.00;;
53497;SDS011;39382;47.168;16.008;2024-03-17T02:42:06;0.85;;;0.85;;
53497;SDS011;39382;47.168;16.008;2024-03-17T02:44:33;1.38;;;1.10;;
53497;SDS011;39382;47.168;16.008;2024-03-17T02:47:00;1.50;;;1.00;;
53497;SDS011;39382;47.168;16.008;2024-03-17T02:49:27;0.70;;;0.70;;
53497;SDS011;39382;47.168;16.008;2024-03-17T02:52:00;3.10;;;1.27;;
53497;SDS011;39382;47.168;16.008;2024-03-17T02:54:26;1.73;;;0.88;;
53497;SDS011;39382;47.168;16.008;2024-03-17T02:56:52;4.18;;;1.23;;
53497;SDS011;39382;47.168;16.008;2024-03-17T02:59:17;1.52;;;0.75;;
53497;SDS011;39382;47.168;16.008;2024-03-17T03:01:43;2.60;;;0.77;;
53497;SDS011;39382;47.168;16.008;2024-03-17T03:04:10;0.63;;;0.63;;
53497;SDS011;39382;47.168;16.008;2024-03-17T03:06:35;1.70;;;0.73;;
53497;SDS011;39382;47.168;16.008;2024-03-17T03:09:01;5.10;;;1.38;;
53497;SDS011;39382;47.168;16.008;2024-03-17T03:11:30;1.02;;;0.90;;
53497;SDS011;39382;47.168;16.008;2024-03-17T03:13:56;1.00;;;0.68;;
53497;SDS011;39382;47.168;16.008;2024-03-17T03:16:21;0.52;;;0.50;;
53497;SDS011;39382;47.168;16.008;2024-03-17T03:18:47;0.20;;;0.20;;
53497;SDS011;39382;47.168;16.008;2024-03-17T03:21:12;0.32;;;0.20;;
53497;SDS011;39382;47.168;16.008;2024-03-17T03:23:38;0.13;;;0.13;;
53497;SDS011;39382;47.168;16.008;2024-03-17T03:26:04;0.30;;;0.30;;
53497;SDS011;39382;47.168;16.008;2024-03-17T03:28:31;0.20;;;0.20;;
53497;SDS011;39382;47.168;16.008;2024-03-17T03:30:58;0.28;;;0.20;;
53497;SDS011;39382;47.168;16.008;2024-03-17T03:33:24;1.23;;;0.40;;
53497;SDS011;39382;47.168;16.008;2024-03-17T03:35:50;0.20;;;0.20;;
53497;SDS011;39382;47.168;16.008;2024-03-17T03:38:16;0.20;;;0.17;;
53497;SDS011;39382;47.168;16.008;2024-03-17T03:40:43;0.10;;;0.10;;
53497;SDS011;39382;47.168;16.008;2024-03-17T03:43:09;0.25;;;0.25;;
53497;SDS011;39382;47.168;16.008;2024-03-17T03:45:35;0.40;;;0.20;;
53497;SDS011;39382;47.168;16.008;2024-03-17T03:48:02;0.47;;;0.32;;
53497;SDS011;39382;47.168;16.008;2024-03-17T03:50:28;0.52;;;0.28;;
53497;SDS011;39382;47.168;16.008;2024-03-17T03:52:54;2.17;;;0.38;;
53497;SDS011;39382;47.168;16.008;2024-03-17T03:55:20;0.35;;;0.35;;
53497;SDS011;39382;47.168;16.008;2024-03-17T03:57:46;1.02;;;0.60;;
53497;SDS011;39382;47.168;16.008;2024-03-17T04:00:16;0.28;;;0.28;;
53497;SDS011;39382;47.168;16.008;2024-03-17T04:02:46;0.20;;;0.20;;
53497;SDS011;39382;47.168;16.008;2024-03-17T04:05:16;0.10;;;0.10;;
53497;SDS011;39382;47.168;16.008;2024-03-17T04:07:42;0.10;;;0.10;;
53497;SDS011;39382;47.168;16.008;2024-03-17T04:10:08;0.20;;;0.20;;
53497;SDS011;39382;47.168;16.008;2024-03-17T04:12:35;0.40;;;0.40;;
53497;SDS011;39382;47.168;16.008;2024-03-17T04:15:00;1.25;;;0.98;;
53497;SDS011;39382;47.168;16.008;2024-03-17T04:17:27;1.70;;;1.05;;
53497;SDS011;39382;47.168;16.008;2024-03-17T04:19:53;0.90;;;0.70;;
53497;SDS011;39382;47.168;16.008;2024-03-17T04:22:20;1.48;;;0.68;;
53497;SDS011;39382;47.168;16.008;2024-03-17T04:24:47;1.20;;;0.43;;
53497;SDS011;39382;47.168;16.008;2024-03-17T04:27:18;1.48;;;0.80;;
53497;SDS011;39382;47.168;16.008;2024-03-17T04:29:51;1.15;;;0.73;;
53497;SDS011;39382;47.168;16.008;2024-03-17T04:32:18;1.67;;;0.73;;
53497;SDS011;39382;47.168;16.008;2024-03-17T04:34:44;1.40;;;0.90;;
53497;SDS011;39382;47.168;16.008;2024-03-17T04:37:10;5.30;;;1.27;;
53497;SDS011;39382;47.168;16.008;2024-03-17T04:39:42;3.03;;;0.82;;
53497;SDS011;39382;47.168;16.008;2024-03-17T04:42:09;1.20;;;0.93;;
53497;SDS011;39382;47.168;16.008;2024-03-17T04:44:35;1.20;;;0.60;;
53497;SDS011;39382;47.168;16.008;2024-03-17T04:47:01;0.47;;;0.35;;
53497;SDS011;39382;47.168;16.008;2024-03-17T04:49:32;1.38;;;1.02;;
53497;SDS011;39382;47.168;16.008;2024-03-17T04:51:59;0.60;;;0.60;;
53497;SDS011;39382;47.168;16.008;2024-03-17T04:54:25;1.33;;;0.98;;
53497;SDS011;39382;47.168;16.008;2024-03-17T04:56:51;1.63;;;0.80;;
53497;SDS011;39382;47.168;16.008;2024-03-17T04:59:16;1.13;;;1.00;;
53497;SDS011;39382;47.168;16.008;2024-03-17T05:01:42;1.05;;;1.05;;
53497;SDS011;39382;47.168;16.008;2024-03-17T05:04:07;1.20;;;0.98;;
53497;SDS011;39382;47.168;16.008;2024-03-17T05:06:33;1.35;;;1.25;;
53497;SDS011;39382;47.168;16.008;2024-03-17T05:08:59;1.77;;;1.00;;
53497;SDS011;39382;47.168;16.008;2024-03-17T05:11:24;1.73;;;1.52;;
53497;SDS011;39382;47.168;16.008;2024-03-17T05:13:50;1.17;;;1.13;;
53497;SDS011;39382;47.168;16.008;2024-03-17T05:16:16;1.25;;;0.90;;
53497;SDS011;39382;47.168;16.008;2024-03-17T05:18:41;1.02;;;0.95;;
53497;SDS011;39382;47.168;16.008;2024-03-17T05:21:08;0.85;;;0.85;;
53497;SDS011;39382;47.168;16.008;2024-03-17T05:23:34;1.10;;;1.00;;
53497;SDS011;39382;47.168;16.008;2024-03-17T05:26:02;3.17;;;0.68;;
53497;SDS011;39382;47.168;16.008;2024-03-17T05:28:31;1.17;;;1.05;;
53497;SDS011;39382;47.168;16.008;2024-03-17T05:30:57;1.10;;;0.82;;
53497;SDS011;39382;47.168;16.008;2024-03-17T05:33:24;0.85;;;0.75;;
53497;SDS011;39382;47.168;16.008;2024-03-17T05:35:57;2.13;;;1.05;;
53497;SDS011;39382;47.168;16.008;2024-03-17T05:38:24;1.20;;;0.82;;
53497;SDS011;39382;47.168;16.008;2024-03-17T05:40:55;1.20;;;0.95;;
53497;SDS011;39382;47.168;16.008;2024-03-17T05:43:21;1.08;;;0.93;;
53497;SDS011;39382;47.168;16.008;2024-03-17T05:45:48;0.57;;;0.57;;
53497;SDS011;39382;47.168;16.008;2024-03-17T05:48:15;0.80;;;0.68;;
53497;SDS011;39382;47.168;16.008;2024-03-17T05:50:41;1.10;;;0.85;;
53497;SDS011;39382;47.168;16.008;2024-03-17T05:53:06;3.25;;;0.93;;
53497;SDS011;39382;47.168;16.008;2024-03-17T05:55:34;0.68;;;0.65;;
53497;SDS011;39382;47.168;16.008;2024-03-17T05:58:01;3.10;;;0.80;;
53497;SDS011;39382;47.168;16.008;2024-03-17T06:00:27;2.35;;;1.48;;
53497;SDS011;39382;47.168;16.008;2024-03-17T06:02:52;5.00;;;2.10;;
53497;SDS011;39382;47.168;16.008;2024-03-17T06:05:18;1.10;;;1.10;;
53497;SDS011;39382;47.168;16.008;2024-03-17T06:07:44;1.73;;;1.60;;
53497;SDS011;39382;47.168;16.008;2024-03-17T06:10:09;2.22;;;1.73;;
53497;SDS011;39382;47.168;16.008;2024-03-17T06:12:35;2.13;;;1.10;;
53497;SDS011;39382;47.168;16.008;2024-03-17T06:15:02;4.10;;;2.88;;
53497;SDS011;39382;47.168;16.008;2024-03-17T06:17:28;1.98;;;1.75;;
53497;SDS011;39382;47.168;16.008;2024-03-17T06:19:53;0.80;;;0.77;;
53497;SDS011;39382;47.168;16.008;2024-03-17T06:22:19;4.43;;;2.15;;
53497;SDS011;39382;47.168;16.008;2024-03-17T06:24:45;2.75;;;1.98;;
53497;SDS011;39382;47.168;16.008;2024-03-17T06:27:10;3.05;;;2.28;;
53497;SDS011;39382;47.168;16.008;2024-03-17T06:29:36;3.20;;;2.05;;
53497;SDS011;39382;47.168;16.008;2024-03-17T06:32:01;2.05;;;1.67;;
53497;SDS011;39382;47.168;16.008;2024-03-17T06:34:27;1.00;;;0.88;;
53497;SDS011;39382;47.168;16.008;2024-03-17T06:36:53;1.45;;;1.05;;
53497;SDS011;39382;47.168;16.008;2024-03-17T06:39:19;1.02;;;0.60;;
53497;SDS011;39382;47.168;16.008;2024-03-17T06:41:46;1.02;;;1.02;;
53497;SDS011;39382;47.168;16.008;2024-03-17T06:44:12;0.90;;;0.90;;
53497;SDS011;39382;47.168;16.008;2024-03-17T06:46:37;3.15;;;1.23;;
53497;SDS011;39382;47.168;16.008;2024-03-17T06:49:03;1.35;;;1.13;;
53497;SDS011;39382;47.168;16.008;2024-03-17T06:51:28;1.05;;;0.85;;
53497;SDS011;39382;47.168;16.008;2024-03-17T06:53:54;1.00;;;0.90;;
53497;SDS011;39382;47.168;16.008;2024-03-17T06:56:20;3.10;;;1.35;;
53497;SDS011;39382;47.168;16.008;2024-03-17T06:58:45;1.13;;;1.08;;
53497;SDS011;39382;47.168;16.008;2024-03-17T07:01:12;3.50;;;2.70;;
53497;SDS011;39382;47.168;16.008;2024-03-17T07:03:37;4.13;;;3.17;;
53497;SDS011;39382;47.168;16.008;2024-03-17T07:06:03;1.80;;;1.50;;
53497;SDS011;39382;47.168;16.008;2024-03-17T07:08:30;1.60;;;1.50;;
53497;SDS011;39382;47.168;16.008;2024-03-17T07:13:23;2.15;;;1.92;;
53497;SDS011;39382;47.168;16.008;2024-03-17T07:15:48;1.35;;;1.25;;
53497;SDS011;39382;47.168;16.008;2024-03-17T07:18:14;3.17;;;1.02;;
53497;SDS011;39382;47.168;16.008;2024-03-17T07:20:40;3.70;;;1.70;;
53497;SDS011;39382;47.168;16.008;2024-03-17T07:23:06;6.80;;;4.72;;
53497;SDS011;39382;47.168;16.008;2024-03-17T07:25:31;4.20;;;2.30;;
53497;SDS011;39382;47.168;16.008;2024-03-17T07:27:57;2.35;;;1.75;;
53497;SDS011;39382;47.168;16.008;2024-03-17T07:30:23;3.63;;;1.48;;
53497;SDS011;39382;47.168;16.008;2024-03-17T07:32:48;2.92;;;2.22;;
53497;SDS011;39382;47.168;16.008;2024-03-17T07:35:14;2.70;;;2.50;;
53497;SDS011;39382;47.168;16.008;2024-03-17T07:37:40;2.55;;;2.17;;
53497;SDS011;39382;47.168;16.008;2024-03-17T07:40:06;2.60;;;1.35;;
53497;SDS011;39382;47.168;16.008;2024-03-17T07:42:32;1.35;;;1.25;;
53497;SDS011;39382;47.168;16.008;2024-03-17T07:44:58;2.00;;;1.80;;
53497;SDS011;39382;47.168;16.008;2024-03-17T07:47:23;2.75;;;2.55;;
53497;SDS011;39382;47.168;16.008;2024-03-17T07:49:50;3.95;;;2.35;;
53497;SDS011;39382;47.168;16.008;2024-03-17T07:52:16;2.70;;;2.30;;
53497;SDS011;39382;47.168;16.008;2024-03-17T07:54:41;3.33;;;2.85;;
53497;SDS011;39382;47.168;16.008;2024-03-17T07:57:07;2.13;;;1.90;;
53497;SDS011;39382;47.168;16.008;2024-03-17T07:59:34;1.52;;;1.20;;
53497;SDS011;39382;47.168;16.008;2024-03-17T08:01:59;1.27;;;0.90;;
53497;SDS011;39382;47.168;16.008;2024-03-17T08:04:25;2.17;;;1.77;;
53497;SDS011;39382;47.168;16.008;2024-03-17T08:06:51;8.25;;;6.13;;
53497;SDS011;39382;47.168;16.008;2024-03-17T08:09:17;6.80;;;4.38;;
53497;SDS011;39382;47.168;16.008;2024-03-17T08:11:43;1.63;;;1.30;;
53497;SDS011;39382;47.168;16.008;2024-03-17T08:14:12;1.98;;;1.48;;
53497;SDS011;39382;47.168;16.008;2024-03-17T08:16:39;1.15;;;1.05;;
53497;SDS011;39382;47.168;16.008;2024-03-17T08:19:05;2.08;;;1.73;;
53497;SDS011;39382;47.168;16.008;2024-03-17T08:21:32;2.53;;;2.30;;
53497;SDS011;39382;47.168;16.008;2024-03-17T08:23:57;1.05;;;1.05;;
53497;SDS011;39382;47.168;16.008;2024-03-17T08:26:23;1.48;;;1.30;;
53497;SDS011;39382;47.168;16.008;2024-03-17T08:28:49;9.73;;;4.57;;
53497;SDS011;39382;47.168;16.008;2024-03-17T08:31:14;6.50;;;4.40;;
53497;SDS011;39382;47.168;16.008;2024-03-17T08:33:40;4.22;;;2.70;;
53497;SDS011;39382;47.168;16.008;2024-03-17T08:36:06;5.68;;;3.22;;
53497;SDS011;39382;47.168;16.008;2024-03-17T08:38:33;3.55;;;3.25;;
53497;SDS011;39382;47.168;16.008;2024-03-17T08:41:03;3.88;;;2.72;;
53497;SDS011;39382;47.168;16.008;2024-03-17T08:43:30;13.52;;;7.43;;
53497;SDS011;39382;47.168;16.008;2024-03-17T08:45:57;6.65;;;4.22;;
53497;SDS011;39382;47.168;16.008;2024-03-17T08:48:36;5.50;;;3.45;;
53497;SDS011;39382;47.168;16.008;2024-03-17T08:51:04;4.47;;;2.95;;
53497;SDS011;39382;47.168;16.008;2024-03-17T08:53:31;3.65;;;3.35;;
53497;SDS011;39382;47.168;16.008;2024-03-17T08:55:58;3.10;;;2.88;;
53497;SDS011;39382;47.168;16.008;2024-03-17T08:58:24;4.93;;;4.00;;
53497;SDS011;39382;47.168;16.008;2024-03-17T09:00:51;2.60;;;2.40;;
53497;SDS011;39382;47.168;16.008;2024-03-17T09:03:17;4.05;;;2.70;;
53497;SDS011;39382;47.168;16.008;2024-03-17T09:05:44;4.75;;;3.40;;
53497;SDS011;39382;47.168;16.008;2024-03-17T09:08:20;8.35;;;4.93;;
53497;SDS011;39382;47.168;16.008;2024-03-17T09:10:51;4.35;;;3.38;;
53497;SDS011;39382;47.168;16.008;2024-03-17T09:13:18;8.35;;;6.35;;
53497;SDS011;39382;47.168;16.008;2024-03-17T09:15:52;2.63;;;1.98;;
53497;SDS011;39382;47.168;16.008;2024-03-17T09:18:17;3.92;;;2.72;;
53497;SDS011;39382;47.168;16.008;2024-03-17T09:20:43;2.92;;;1.80;;
53497;SDS011;39382;47.168;16.008;2024-03-17T09:23:09;0.80;;;0.80;;
53497;SDS011;39382;47.168;16.008;2024-03-17T09:25:34;1.15;;;1.05;;
53497;SDS011;39382;47.168;16.008;2024-03-17T09:28:00;3.67;;;1.30;;
53497;SDS011;39382;47.168;16.008;2024-03-17T09:30:26;2.58;;;2.35;;
53497;SDS011;39382;47.168;16.008;2024-03-17T09:32:52;3.25;;;2.20;;
53497;SDS011;39382;47.168;16.008;2024-03-17T09:35:18;2.75;;;2.28;;
53497;SDS011;39382;47.168;16.008;2024-03-17T09:37:43;2.08;;;1.75;;
53497;SDS011;39382;47.168;16.008;2024-03-17T09:40:15;4.15;;;2.60;;
53497;SDS011;39382;47.168;16.008;2024-03-17T09:42:41;3.80;;;2.40;;
53497;SDS011;39382;47.168;16.008;2024-03-17T09:45:10;2.35;;;1.52;;
53497;SDS011;39382;47.168;16.008;2024-03-17T09:47:38;7.65;;;2.38;;
53497;SDS011;39382;47.168;16.008;2024-03-17T09:50:06;4.75;;;1.98;;
53497;SDS011;39382;47.168;16.008;2024-03-17T09:52:38;2.03;;;1.77;;
53497;SDS011;39382;47.168;16.008;2024-03-17T09:57:40;4.13;;;2.80;;
53497;SDS011;39382;47.168;16.008;2024-03-17T10:00:11;5.82;;;3.05;;
53497;SDS011;39382;47.168;16.008;2024-03-17T10:02:45;8.95;;;4.78;;
53497;SDS011;39382;47.168;16.008;2024-03-17T10:05:18;9.43;;;3.67;;
53497;SDS011;39382;47.168;16.008;2024-03-17T10:07:48;15.35;;;4.13;;
53497;SDS011;39382;47.168;16.008;2024-03-17T10:10:15;5.88;;;3.67;;
53497;SDS011;39382;47.168;16.008;2024-03-17T10:12:43;12.75;;;6.18;;
53497;SDS011;39382;47.168;16.008;2024-03-17T10:15:10;5.35;;;3.30;;
53497;SDS011;39382;47.168;16.008;2024-03-17T10:17:37;1.92;;;1.73;;
53497;SDS011;39382;47.168;16.008;2024-03-17T10:20:16;2.13;;;1.92;;
53497;SDS011;39382;47.168;16.008;2024-03-17T10:25:25;2.83;;;1.38;;
53497;SDS011;39382;47.168;16.008;2024-03-17T10:27:55;1.25;;;1.25;;
53497;SDS011;39382;47.168;16.008;2024-03-17T10:30:22;1.25;;;1.17;;
53497;SDS011;39382;47.168;16.008;2024-03-17T10:32:56;2.08;;;1.67;;
53497;SDS011;39382;47.168;16.008;2024-03-17T10:35:35;1.77;;;1.63;;
53497;SDS011;39382;47.168;16.008;2024-03-17T10:38:06;2.53;;;1.52;;
53497;SDS011;39382;47.168;16.008;2024-03-17T10:40:33;1.17;;;1.00;;
53497;SDS011;39382;47.168;16.008;2024-03-17T10:43:01;0.70;;;0.65;;
53497;SDS011;39382;47.168;16.008;2024-03-17T10:45:27;0.95;;;0.90;;
53497;SDS011;39382;47.168;16.008;2024-03-17T10:48:00;2.20;;;0.90;;
53497;SDS011;39382;47.168;16.008;2024-03-17T10:50:29;1.00;;;0.93;;
53497;SDS011;39382;47.168;16.008;2024-03-17T10:53:00;1.23;;;1.13;;
53497;SDS011;39382;47.168;16.008;2024-03-17T10:55:28;2.22;;;1.15;;
53497;SDS011;39382;47.168;16.008;2024-03-17T10:58:05;1.02;;;0.90;;
53497;SDS011;39382;47.168;16.008;2024-03-17T11:00:43;1.90;;;1.00;;
53497;SDS011;39382;47.168;16.008;2024-03-17T11:03:11;5.50;;;2.45;;
53497;SDS011;39382;47.168;16.008;2024-03-17T11:05:38;5.55;;;2.70;;
53497;SDS011;39382;47.168;16.008;2024-03-17T11:08:04;2.85;;;1.55;;
53497;SDS011;39382;47.168;16.008;2024-03-17T11:10:32;2.33;;;1.95;;
53497;SDS011;39382;47.168;16.008;2024-03-17T11:13:00;3.10;;;2.25;;
53497;SDS011;39382;47.168;16.008;2024-03-17T11:20:35;1.48;;;1.17;;
53497;SDS011;39382;47.168;16.008;2024-03-17T11:23:02;4.13;;;0.60;;
53497;SDS011;39382;47.168;16.008;2024-03-17T11:28:02;1.75;;;1.65;;
53497;SDS011;39382;47.168;16.008;2024-03-17T11:41:42;1.00;;;0.90;;
53497;SDS011;39382;47.168;16.008;2024-03-17T11:46:59;2.17;;;2.08;;
53497;SDS011;39382;47.168;16.008;2024-03-17T11:49:27;1.98;;;1.33;;
53497;SDS011;39382;47.168;16.008;2024-03-17T11:51:55;1.10;;;0.93;;
53497;SDS011;39382;47.168;16.008;2024-03-17T11:54:23;2.35;;;1.60;;
53497;SDS011;39382;47.168;16.008;2024-03-17T11:56:53;1.33;;;1.05;;
53497;SDS011;39382;47.168;16.008;2024-03-17T11:59:20;0.98;;;0.90;;
53497;SDS011;39382;47.168;16.008;2024-03-17T12:01:48;1.92;;;0.80;;
53497;SDS011;39382;47.168;16.008;2024-03-17T12:04:15;1.80;;;0.95;;
53497;SDS011;39382;47.168;16.008;2024-03-17T12:09:19;2.40;;;1.42;;
53497;SDS011;39382;47.168;16.008;2024-03-17T12:11:50;2.75;;;1.00;;
53497;SDS011;39382;47.168;16.008;2024-03-17T12:14:22;7.20;;;3.38;;
53497;SDS011;39382;47.168;16.008;2024-03-17T12:16:54;6.32;;;2.97;;
53497;SDS011;39382;47.168;16.008;2024-03-17T12:19:21;12.35;;;4.90;;
53497;SDS011;39382;47.168;16.008;2024-03-17T12:21:49;18.25;;;6.78;;
53497;SDS011;39382;47.168;16.008;2024-03-17T12:24:17;5.45;;;3.40;;
53497;SDS011;39382;47.168;16.008;2024-03-17T12:26:45;4.45;;;2.35;;
53497;SDS011;39382;47.168;16.008;2024-03-17T12:29:22;2.35;;;1.58;;
53497;SDS011;39382;47.168;16.008;2024-03-17T12:32:10;2.03;;;1.60;;
53497;SDS011;39382;47.168;16.008;2024-03-17T12:34:44;2.33;;;1.65;;
53497;SDS011;39382;47.168;16.008;2024-03-17T12:37:20;4.30;;;2.00;;
53497;SDS011;39382;47.168;16.008;2024-03-17T12:39:47;3.97;;;2.20;;
53497;SDS011;39382;47.168;16.008;2024-03-17T12:42:14;2.45;;;1.13;;
53497;SDS011;39382;47.168;16.008;2024-03-17T12:44:51;1.25;;;1.15;;
53497;SDS011;39382;47.168;16.008;2024-03-17T12:47:20;0.95;;;0.90;;
53497;SDS011;39382;47.168;16.008;2024-03-17T12:49:50;1.05;;;0.60;;
53497;SDS011;39382;47.168;16.008;2024-03-17T12:52:21;1.38;;;0.85;;
53497;SDS011;39382;47.168;16.008;2024-03-17T12:55:30;0.68;;;0.68;;
53497;SDS011;39382;47.168;16.008;2024-03-17T13:00:45;1.08;;;0.80;;
53497;SDS011;39382;47.168;16.008;2024-03-17T13:03:21;1.73;;;0.80;;
53497;SDS011;39382;47.168;16.008;2024-03-17T13:05:49;2.03;;;1.25;;
53497;SDS011;39382;47.168;16.008;2024-03-17T13:08:15;1.10;;;1.00;;
53497;SDS011;39382;47.168;16.008;2024-03-17T13:10:41;1.70;;;0.85;;
53497;SDS011;39382;47.168;16.008;2024-03-17T13:13:10;0.90;;;0.73;;
53497;SDS011;39382;47.168;16.008;2024-03-17T13:15:40;3.58;;;1.20;;
53497;SDS011;39382;47.168;16.008;2024-03-17T13:18:06;1.80;;;1.00;;
53497;SDS011;39382;47.168;16.008;2024-03-17T13:20:32;2.13;;;0.93;;
53497;SDS011;39382;47.168;16.008;2024-03-17T13:22:59;1.35;;;1.13;;
53497;SDS011;39382;47.168;16.008;2024-03-17T13:25:29;1.85;;;0.93;;
53497;SDS011;39382;47.168;16.008;2024-03-17T13:27:59;0.98;;;0.80;;
53497;SDS011;39382;47.168;16.008;2024-03-17T13:30:26;0.60;;;0.60;;
53497;SDS011;39382;47.168;16.008;2024-03-17T13:32:54;1.08;;;0.93;;
53497;SDS011;39382;47.168;16.008;2024-03-17T13:35:29;1.00;;;0.90;;
53497;SDS011;39382;47.168;16.008;2024-03-17T13:37:56;3.20;;;1.23;;
53497;SDS011;39382;47.168;16.008;2024-03-17T13:40:27;2.63;;;1.10;;
53497;SDS011;39382;47.168;16.008;2024-03-17T13:42:53;0.73;;;0.73;;
53497;SDS011;39382;47.168;16.008;2024-03-17T13:45:20;1.25;;;0.90;;
53497;SDS011;39382;47.168;16.008;2024-03-17T13:47:53;3.22;;;1.15;;
53497;SDS011;39382;47.168;16.008;2024-03-17T13:50:23;1.58;;;0.98;;
53497;SDS011;39382;47.168;16.008;2024-03-17T13:52:49;0.80;;;0.77;;
53497;SDS011;39382;47.168;16.008;2024-03-17T13:55:19;3.03;;;1.05;;
53497;SDS011;39382;47.168;16.008;2024-03-17T13:57:47;1.13;;;0.90;;
53497;SDS011;39382;47.168;16.008;2024-03-17T14:00:16;2.58;;;1.35;;
53497;SDS011;39382;47.168;16.008;2024-03-17T14:02:44;1.05;;;1.00;;
53497;SDS011;39382;47.168;16.008;2024-03-17T14:05:15;1.20;;;1.00;;
53497;SDS011;39382;47.168;16.008;2024-03-17T14:07:45;1.52;;;1.42;;
53497;SDS011;39382;47.168;16.008;2024-03-17T14:10:13;1.80;;;1.48;;
53497;SDS011;39382;47.168;16.008;2024-03-17T14:12:40;1.50;;;0.93;;
53497;SDS011;39382;47.168;16.008;2024-03-17T14:15:07;1.50;;;1.08;;
53497;SDS011;39382;47.168;16.008;2024-03-17T14:17:40;2.70;;;1.42;;
53497;SDS011;39382;47.168;16.008;2024-03-17T14:20:10;1.45;;;1.13;;
53497;SDS011;39382;47.168;16.008;2024-03-17T14:22:38;3.78;;;1.27;;
53497;SDS011;39382;47.168;16.008;2024-03-17T14:25:08;1.88;;;1.17;;
53497;SDS011;39382;47.168;16.008;2024-03-17T14:27:36;2.00;;;1.25;;
53497;SDS011;39382;47.168;16.008;2024-03-17T14:30:02;1.15;;;0.95;;
53497;SDS011;39382;47.168;16.008;2024-03-17T14:32:29;5.03;;;1.55;;
53497;SDS011;39382;47.168;16.008;2024-03-17T14:34:55;1.77;;;1.35;;
53497;SDS011;39382;47.168;16.008;2024-03-17T14:37:21;1.10;;;1.10;;
53497;SDS011;39382;47.168;16.008;2024-03-17T14:39:51;7.32;;;1.40;;
53497;SDS011;39382;47.168;16.008;2024-03-17T14:42:17;1.67;;;1.10;;
53497;SDS011;39382;47.168;16.008;2024-03-17T14:44:44;2.55;;;1.35;;
53497;SDS011;39382;47.168;16.008;2024-03-17T14:47:10;1.05;;;0.90;;
53497;SDS011;39382;47.168;16.008;2024-03-17T14:49:36;1.95;;;1.00;;
53497;SDS011;39382;47.168;16.008;2024-03-17T14:52:02;3.53;;;1.40;;
53497;SDS011;39382;47.168;16.008;2024-03-17T14:54:27;1.38;;;1.27;;
53497;SDS011;39382;47.168;16.008;2024-03-17T14:56:53;5.15;;;1.35;;
53497;SDS011;39382;47.168;16.008;2024-03-17T14:59:19;4.38;;;1.15;;
53497;SDS011;39382;47.168;16.008;2024-03-17T15:01:45;1.63;;;1.15;;
53497;SDS011;39382;47.168;16.008;2024-03-17T15:04:12;1.00;;;0.90;;
53497;SDS011;39382;47.168;16.008;2024-03-17T15:06:38;1.88;;;1.00;;
53497;SDS011;39382;47.168;16.008;2024-03-17T15:09:05;1.58;;;0.88;;